PIA451 OPIS-OPSD
Flight info
| Callsign | PIA451 |
|---|---|
| Flight time | 0h 46m |
| Altitude | 31000 |
| Route | BOBAM DCT KAGLO J186 KAPMI J154 BUNGI J186 DELDA DCT BIREB |
| Aircraft | A320/M-SDE3FGHIRWY/LB1 |
Departure
| Time | 2026-05-06 18:38 |
|---|---|
| Airport | Islamabad International Airport (OPIS) |
Arrival
| Time | 2026-05-06 19:24 |
|---|---|
| Airport | Skardu International Airport (OPSD) |
| Time | Latitude | Longitude | Altitude | Speed | Heading |
|---|---|---|---|---|---|
| 2026-05-06 17:47 | 33.55442 | 72.83357 | 1687 ft | 0 kts | 10° |
| 2026-05-06 18:24 | 33.55433 | 72.83355 | 1770 ft | 4 kts | 11° |
| 2026-05-06 18:24 | 33.55406 | 72.83347 | 1771 ft | 4 kts | 17° |
| 2026-05-06 18:24 | 33.55384 | 72.83338 | 1773 ft | 4 kts | 28° |
| 2026-05-06 18:24 | 33.55365 | 72.83319 | 1772 ft | 4 kts | 72° |
| 2026-05-06 18:25 | 33.55363 | 72.83308 | 1772 ft | 0 kts | 100° |
| 2026-05-06 18:29 | 33.55361 | 72.83321 | 1771 ft | 6 kts | 100° |
| 2026-05-06 18:29 | 33.55353 | 72.83370 | 1771 ft | 5 kts | 100° |
| 2026-05-06 18:29 | 33.55348 | 72.83405 | 1770 ft | 4 kts | 100° |
| 2026-05-06 18:29 | 33.55333 | 72.83494 | 1770 ft | 15 kts | 108° |
| 2026-05-06 18:30 | 33.55233 | 72.83535 | 1769 ft | 22 kts | 191° |
| 2026-05-06 18:30 | 33.55073 | 72.83488 | 1772 ft | 23 kts | 211° |
| 2026-05-06 18:30 | 33.55068 | 72.83402 | 1772 ft | 8 kts | 294° |
| 2026-05-06 18:30 | 33.55077 | 72.83345 | 1771 ft | 6 kts | 271° |
| 2026-05-06 18:31 | 33.55089 | 72.83247 | 1768 ft | 18 kts | 282° |
| 2026-05-06 18:31 | 33.55117 | 72.83098 | 1768 ft | 19 kts | 281° |
| 2026-05-06 18:31 | 33.55142 | 72.82939 | 1771 ft | 20 kts | 280° |
| 2026-05-06 18:31 | 33.55168 | 72.82775 | 1772 ft | 21 kts | 280° |
| 2026-05-06 18:32 | 33.55192 | 72.82602 | 1768 ft | 22 kts | 280° |
| 2026-05-06 18:32 | 33.55220 | 72.82422 | 1768 ft | 22 kts | 281° |
| 2026-05-06 18:32 | 33.55249 | 72.82235 | 1769 ft | 23 kts | 280° |
| 2026-05-06 18:32 | 33.55278 | 72.82041 | 1768 ft | 24 kts | 280° |
| 2026-05-06 18:33 | 33.55308 | 72.81837 | 1767 ft | 25 kts | 280° |
| 2026-05-06 18:33 | 33.55340 | 72.81629 | 1767 ft | 26 kts | 280° |
| 2026-05-06 18:33 | 33.55374 | 72.81417 | 1768 ft | 26 kts | 281° |
| 2026-05-06 18:33 | 33.55406 | 72.81205 | 1767 ft | 26 kts | 281° |
| 2026-05-06 18:34 | 33.55436 | 72.81000 | 1768 ft | 23 kts | 280° |
| 2026-05-06 18:34 | 33.55466 | 72.80813 | 1768 ft | 23 kts | 281° |
| 2026-05-06 18:34 | 33.55408 | 72.80686 | 1768 ft | 21 kts | 190° |
| 2026-05-06 18:34 | 33.55247 | 72.80653 | 1749 ft | 25 kts | 190° |
| 2026-05-06 18:35 | 33.55108 | 72.80636 | 1755 ft | 10 kts | 131° |
| 2026-05-06 18:35 | 33.55103 | 72.80668 | 1755 ft | 0 kts | 96° |
| 2026-05-06 18:37 | 33.55093 | 72.80739 | 1751 ft | 30 kts | 101° |
| 2026-05-06 18:37 | 33.55010 | 72.81276 | 1756 ft | 97 kts | 101° |
| 2026-05-06 18:37 | 33.54853 | 72.82281 | 1755 ft | 147 kts | 100° |
| 2026-05-06 18:37 | 33.54650 | 72.83575 | 1843 ft | 179 kts | 101° |
| 2026-05-06 18:38 | 33.54420 | 72.84998 | 2535 ft | 172 kts | 100° |
| 2026-05-06 18:38 | 33.54198 | 72.86414 | 3125 ft | 173 kts | 99° |
| 2026-05-06 18:38 | 33.53976 | 72.87847 | 3565 ft | 182 kts | 99° |
| 2026-05-06 18:38 | 33.53732 | 72.89430 | 3760 ft | 204 kts | 99° |
| 2026-05-06 18:39 | 33.53394 | 72.91176 | 3926 ft | 227 kts | 114° |
| 2026-05-06 18:39 | 33.52433 | 72.92740 | 4243 ft | 242 kts | 136° |
| 2026-05-06 18:39 | 33.51146 | 72.94082 | 4860 ft | 247 kts | 142° |
| 2026-05-06 18:40 | 33.48394 | 72.96647 | 6231 ft | 254 kts | 142° |
| 2026-05-06 18:40 | 33.47008 | 72.97975 | 6906 ft | 257 kts | 141° |
| 2026-05-06 18:40 | 33.45622 | 72.99346 | 7593 ft | 260 kts | 140° |
| 2026-05-06 18:40 | 33.44237 | 73.00746 | 8295 ft | 262 kts | 140° |
| 2026-05-06 18:41 | 33.42844 | 73.02176 | 9007 ft | 265 kts | 138° |
| 2026-05-06 18:41 | 33.41689 | 73.03882 | 9698 ft | 266 kts | 112° |
| 2026-05-06 18:41 | 33.41296 | 73.06026 | 10317 ft | 265 kts | 85° |
| 2026-05-06 18:41 | 33.41737 | 73.08142 | 10931 ft | 263 kts | 59° |
| 2026-05-06 18:42 | 33.42881 | 73.09813 | 11568 ft | 260 kts | 34° |
| 2026-05-06 18:42 | 33.44494 | 73.10736 | 12203 ft | 258 kts | 9° |
| 2026-05-06 18:42 | 33.46271 | 73.11080 | 12885 ft | 259 kts | 7° |
| 2026-05-06 18:42 | 33.48060 | 73.11405 | 13537 ft | 261 kts | 7° |
| 2026-05-06 18:43 | 33.49862 | 73.11734 | 14142 ft | 263 kts | 7° |
| 2026-05-06 18:43 | 33.51675 | 73.12069 | 14748 ft | 264 kts | 7° |
| 2026-05-06 18:43 | 33.53523 | 73.12413 | 15351 ft | 266 kts | 7° |
| 2026-05-06 18:43 | 33.55360 | 73.12739 | 15943 ft | 268 kts | 3° |
| 2026-05-06 18:44 | 33.57228 | 73.12734 | 16512 ft | 269 kts | 357° |
| 2026-05-06 18:44 | 33.59111 | 73.12651 | 17075 ft | 272 kts | 358° |
| 2026-05-06 18:44 | 33.61012 | 73.12569 | 17654 ft | 275 kts | 358° |
| 2026-05-06 18:44 | 33.62927 | 73.12487 | 18223 ft | 277 kts | 358° |
| 2026-05-06 18:45 | 33.64857 | 73.12405 | 18729 ft | 278 kts | 357° |
| 2026-05-06 18:45 | 33.66798 | 73.12320 | 19250 ft | 279 kts | 357° |
| 2026-05-06 18:45 | 33.68744 | 73.12235 | 19769 ft | 280 kts | 357° |
| 2026-05-06 18:45 | 33.70694 | 73.12150 | 20271 ft | 281 kts | 357° |
| 2026-05-06 18:46 | 33.72610 | 73.12064 | 20778 ft | 283 kts | 357° |
| 2026-05-06 18:46 | 33.74575 | 73.11975 | 21282 ft | 284 kts | 357° |
| 2026-05-06 18:46 | 33.75887 | 73.11916 | 21622 ft | 284 kts | 357° |
| 2026-05-06 18:46 | 33.78527 | 73.11801 | 22206 ft | 287 kts | 357° |
| 2026-05-06 18:47 | 33.80569 | 73.11710 | 22332 ft | 300 kts | 357° |
| 2026-05-06 18:47 | 33.82697 | 73.11613 | 22552 ft | 311 kts | 357° |
| 2026-05-06 18:47 | 33.84878 | 73.11516 | 22922 ft | 316 kts | 357° |
| 2026-05-06 18:47 | 33.87082 | 73.11420 | 23415 ft | 318 kts | 357° |
| 2026-05-06 18:48 | 33.89295 | 73.11323 | 23863 ft | 319 kts | 357° |
| 2026-05-06 18:48 | 33.91517 | 73.11225 | 24310 ft | 319 kts | 357° |
| 2026-05-06 18:48 | 33.93741 | 73.11127 | 24721 ft | 321 kts | 357° |
| 2026-05-06 18:48 | 33.95980 | 73.11029 | 25132 ft | 323 kts | 357° |
| 2026-05-06 18:49 | 33.98230 | 73.10931 | 25560 ft | 324 kts | 357° |
| 2026-05-06 18:49 | 34.00490 | 73.10833 | 25981 ft | 326 kts | 357° |
| 2026-05-06 18:49 | 34.02757 | 73.10737 | 26391 ft | 327 kts | 357° |
| 2026-05-06 18:49 | 34.05036 | 73.10638 | 26793 ft | 328 kts | 357° |
| 2026-05-06 18:50 | 34.07326 | 73.10537 | 27181 ft | 330 kts | 357° |
| 2026-05-06 18:50 | 34.09635 | 73.10436 | 27540 ft | 333 kts | 357° |
| 2026-05-06 18:50 | 34.11955 | 73.10336 | 27941 ft | 335 kts | 357° |
| 2026-05-06 18:50 | 34.14287 | 73.10234 | 28345 ft | 336 kts | 357° |
| 2026-05-06 18:51 | 34.16659 | 73.10128 | 28754 ft | 338 kts | 357° |
| 2026-05-06 18:51 | 34.19014 | 73.10026 | 29149 ft | 339 kts | 357° |
| 2026-05-06 18:51 | 34.21380 | 73.09923 | 29557 ft | 341 kts | 357° |
| 2026-05-06 18:51 | 34.23748 | 73.09819 | 29955 ft | 342 kts | 357° |
| 2026-05-06 18:52 | 34.26139 | 73.09712 | 30295 ft | 344 kts | 356° |
| 2026-05-06 18:52 | 34.28539 | 73.09604 | 30628 ft | 346 kts | 356° |
| 2026-05-06 18:52 | 34.30952 | 73.09494 | 30905 ft | 348 kts | 356° |
| 2026-05-06 18:53 | 34.35791 | 73.09272 | 30980 ft | 348 kts | 356° |
| 2026-05-06 18:53 | 34.40635 | 73.09054 | 30968 ft | 348 kts | 356° |
| 2026-05-06 18:54 | 34.45479 | 73.08845 | 30970 ft | 348 kts | 356° |
| 2026-05-06 18:54 | 34.50320 | 73.08636 | 30983 ft | 348 kts | 356° |
| 2026-05-06 18:55 | 34.55125 | 73.09317 | 31011 ft | 352 kts | 15° |
| 2026-05-06 18:55 | 34.59437 | 73.12162 | 31006 ft | 359 kts | 37° |
| 2026-05-06 18:56 | 34.62639 | 73.16901 | 30995 ft | 369 kts | 54° |
| 2026-05-06 18:56 | 34.65363 | 73.22330 | 31025 ft | 388 kts | 53° |
| 2026-05-06 18:57 | 34.68151 | 73.27865 | 31060 ft | 408 kts | 54° |
| 2026-05-06 18:57 | 34.71163 | 73.33887 | 31080 ft | 426 kts | 55° |
| 2026-05-06 18:58 | 34.74222 | 73.40030 | 31117 ft | 433 kts | 55° |
| 2026-05-06 18:58 | 34.77394 | 73.46259 | 31114 ft | 431 kts | 50° |
| 2026-05-06 18:59 | 34.81582 | 73.51351 | 31154 ft | 424 kts | 34° |
| 2026-05-06 18:59 | 34.86341 | 73.55802 | 31176 ft | 434 kts | 34° |
| 2026-05-06 19:00 | 34.91187 | 73.60351 | 31175 ft | 444 kts | 35° |
| 2026-05-06 19:00 | 34.96104 | 73.64977 | 31191 ft | 447 kts | 35° |
| 2026-05-06 19:01 | 35.01033 | 73.69621 | 31220 ft | 449 kts | 36° |
| 2026-05-06 19:01 | 35.05136 | 73.73500 | 31215 ft | 449 kts | 36° |
| 2026-05-06 19:02 | 35.10073 | 73.78167 | 31213 ft | 449 kts | 36° |
| 2026-05-06 19:02 | 35.15003 | 73.82839 | 31215 ft | 449 kts | 36° |
| 2026-05-06 19:03 | 35.19934 | 73.87529 | 31189 ft | 449 kts | 37° |
| 2026-05-06 19:03 | 35.24862 | 73.92224 | 31190 ft | 449 kts | 37° |
| 2026-05-06 19:04 | 35.29801 | 73.96914 | 31193 ft | 449 kts | 37° |
| 2026-05-06 19:04 | 35.34767 | 74.01650 | 31198 ft | 450 kts | 37° |
| 2026-05-06 19:05 | 35.39669 | 74.06434 | 31176 ft | 451 kts | 43° |
| 2026-05-06 19:05 | 35.43471 | 74.12541 | 31186 ft | 454 kts | 61° |
| 2026-05-06 19:06 | 35.46374 | 74.19421 | 31187 ft | 455 kts | 61° |
| 2026-05-06 19:06 | 35.49277 | 74.26302 | 31204 ft | 455 kts | 61° |
| 2026-05-06 19:07 | 35.52177 | 74.33221 | 31195 ft | 456 kts | 62° |
| 2026-05-06 19:07 | 35.55073 | 74.40146 | 31213 ft | 455 kts | 61° |
| 2026-05-06 19:08 | 35.57971 | 74.47062 | 31214 ft | 456 kts | 62° |
| 2026-05-06 19:08 | 35.60848 | 74.53950 | 31041 ft | 444 kts | 62° |
| 2026-05-06 19:08 | 35.62231 | 74.57298 | 30794 ft | 435 kts | 62° |
| 2026-05-06 19:09 | 35.63582 | 74.60565 | 30555 ft | 431 kts | 62° |
| 2026-05-06 19:09 | 35.64982 | 74.63806 | 30313 ft | 428 kts | 60° |
| 2026-05-06 19:09 | 35.66426 | 74.66998 | 30051 ft | 426 kts | 59° |
| 2026-05-06 19:09 | 35.67893 | 74.70161 | 29781 ft | 425 kts | 59° |
| 2026-05-06 19:10 | 35.69227 | 74.73386 | 29559 ft | 424 kts | 68° |
| 2026-05-06 19:10 | 35.70072 | 74.76853 | 29338 ft | 424 kts | 78° |
| 2026-05-06 19:10 | 35.70374 | 74.80454 | 29115 ft | 424 kts | 88° |
| 2026-05-06 19:10 | 35.70139 | 74.84065 | 28839 ft | 425 kts | 99° |
| 2026-05-06 19:11 | 35.69406 | 74.87576 | 28566 ft | 420 kts | 105° |
| 2026-05-06 19:11 | 35.68574 | 74.90975 | 28300 ft | 410 kts | 105° |
| 2026-05-06 19:11 | 35.67762 | 74.94306 | 27881 ft | 404 kts | 105° |
| 2026-05-06 19:11 | 35.66953 | 74.97656 | 27322 ft | 403 kts | 104° |
| 2026-05-06 19:12 | 35.66160 | 75.00952 | 26762 ft | 402 kts | 104° |
| 2026-05-06 19:12 | 35.65373 | 75.04236 | 26222 ft | 400 kts | 104° |
| 2026-05-06 19:12 | 35.64587 | 75.07506 | 25797 ft | 395 kts | 104° |
| 2026-05-06 19:12 | 35.63810 | 75.10717 | 25433 ft | 390 kts | 105° |
| 2026-05-06 19:13 | 35.63040 | 75.13879 | 24919 ft | 381 kts | 105° |
| 2026-05-06 19:13 | 35.62301 | 75.16901 | 24421 ft | 368 kts | 105° |
| 2026-05-06 19:13 | 35.61564 | 75.19914 | 23936 ft | 357 kts | 105° |
| 2026-05-06 19:13 | 35.60860 | 75.22787 | 23406 ft | 345 kts | 105° |
| 2026-05-06 19:14 | 35.60179 | 75.25555 | 22955 ft | 332 kts | 105° |
| 2026-05-06 19:14 | 35.59513 | 75.28221 | 22526 ft | 320 kts | 108° |
| 2026-05-06 19:14 | 35.58620 | 75.30687 | 22104 ft | 313 kts | 118° |
| 2026-05-06 19:14 | 35.57407 | 75.32888 | 21631 ft | 312 kts | 127° |
| 2026-05-06 19:15 | 35.55904 | 75.34808 | 21025 ft | 312 kts | 137° |
| 2026-05-06 19:15 | 35.54148 | 75.36390 | 20397 ft | 313 kts | 147° |
| 2026-05-06 19:15 | 35.52288 | 75.37776 | 19799 ft | 313 kts | 146° |
| 2026-05-06 19:15 | 35.50426 | 75.39176 | 19134 ft | 315 kts | 146° |
| 2026-05-06 19:16 | 35.48542 | 75.40601 | 18417 ft | 319 kts | 146° |
| 2026-05-06 19:16 | 35.46643 | 75.42015 | 17630 ft | 321 kts | 149° |
| 2026-05-06 19:16 | 35.44656 | 75.43288 | 16858 ft | 324 kts | 153° |
| 2026-05-06 19:16 | 35.42619 | 75.44498 | 16101 ft | 327 kts | 153° |
| 2026-05-06 19:17 | 35.40567 | 75.45719 | 15322 ft | 329 kts | 153° |
| 2026-05-06 19:17 | 35.38504 | 75.46960 | 14562 ft | 332 kts | 153° |
| 2026-05-06 19:17 | 35.36393 | 75.48113 | 13797 ft | 333 kts | 159° |
| 2026-05-06 19:17 | 35.34212 | 75.49095 | 12975 ft | 333 kts | 160° |
| 2026-05-06 19:18 | 35.32034 | 75.50053 | 12165 ft | 332 kts | 160° |
| 2026-05-06 19:18 | 35.29953 | 75.51239 | 11396 ft | 330 kts | 143° |
| 2026-05-06 19:18 | 35.28412 | 75.53248 | 10724 ft | 323 kts | 120° |
| 2026-05-06 19:18 | 35.27675 | 75.55793 | 10130 ft | 316 kts | 95° |
| 2026-05-06 19:19 | 35.27869 | 75.58393 | 9671 ft | 302 kts | 70° |
| 2026-05-06 19:19 | 35.28890 | 75.60536 | 9214 ft | 284 kts | 44° |
| 2026-05-06 19:19 | 35.30484 | 75.61663 | 9278 ft | 257 kts | 8° |
| 2026-05-06 19:19 | 35.32307 | 75.61352 | 9439 ft | 284 kts | 331° |
| 2026-05-06 19:20 | 35.33856 | 75.59775 | 9766 ft | 293 kts | 314° |
| 2026-05-06 19:20 | 35.35266 | 75.58056 | 10163 ft | 273 kts | 318° |
| 2026-05-06 19:20 | 35.36607 | 75.56487 | 10201 ft | 258 kts | 315° |
| 2026-05-06 19:20 | 35.37763 | 75.54964 | 10231 ft | 233 kts | 308° |
| 2026-05-06 19:21 | 35.38264 | 75.53139 | 9729 ft | 229 kts | 263° |
| 2026-05-06 19:21 | 35.37562 | 75.51447 | 9097 ft | 228 kts | 217° |
| 2026-05-06 19:21 | 35.36114 | 75.50961 | 8721 ft | 215 kts | 169° |
| 2026-05-06 19:21 | 35.34792 | 75.51623 | 8569 ft | 194 kts | 151° |
| 2026-05-06 19:22 | 35.33678 | 75.52308 | 8543 ft | 167 kts | 161° |
| 2026-05-06 19:22 | 35.32573 | 75.52651 | 8232 ft | 161 kts | 166° |
| 2026-05-06 19:22 | 35.31501 | 75.53022 | 8126 ft | 169 kts | 161° |
| 2026-05-06 19:22 | 35.30427 | 75.53649 | 8138 ft | 167 kts | 131° |
| 2026-05-06 19:23 | 35.30225 | 75.54957 | 8055 ft | 167 kts | 65° |
| 2026-05-06 19:23 | 35.31095 | 75.55783 | 7901 ft | 165 kts | 5° |
| 2026-05-06 19:23 | 35.32144 | 75.55262 | 7556 ft | 168 kts | 326° |
| 2026-05-06 19:23 | 35.33082 | 75.54513 | 7386 ft | 150 kts | 327° |
| 2026-05-06 19:24 | 35.33873 | 75.53892 | 7376 ft | 115 kts | 326° |
| 2026-05-06 19:24 | 35.34409 | 75.53466 | 7379 ft | 75 kts | 327° |
| 2026-05-06 19:24 | 35.34725 | 75.53228 | 7379 ft | 23 kts | 348° |
| 2026-05-06 19:24 | 35.34884 | 75.53233 | 7377 ft | 23 kts | 359° |
| 2026-05-06 19:25 | 35.35001 | 75.53286 | 7378 ft | 14 kts | 89° |
| 2026-05-06 19:25 | 35.34962 | 75.53335 | 7378 ft | 7 kts | 148° |
| 2026-05-06 19:25 | 35.34931 | 75.53358 | 7378 ft | 4 kts | 148° |
| 2026-05-06 19:25 | 35.34913 | 75.53372 | 7381 ft | 4 kts | 146° |
| 2026-05-06 19:26 | 35.34826 | 75.53444 | 7380 ft | 23 kts | 146° |
| 2026-05-06 19:26 | 35.34692 | 75.53551 | 7381 ft | 23 kts | 147° |
| 2026-05-06 19:26 | 35.34559 | 75.53654 | 7381 ft | 23 kts | 146° |
| 2026-05-06 19:26 | 35.34426 | 75.53760 | 7379 ft | 23 kts | 147° |
| 2026-05-06 19:27 | 35.34293 | 75.53865 | 7378 ft | 23 kts | 147° |
| 2026-05-06 19:27 | 35.34154 | 75.53974 | 7378 ft | 24 kts | 147° |
| 2026-05-06 19:27 | 35.34010 | 75.54090 | 7376 ft | 25 kts | 147° |
| 2026-05-06 19:27 | 35.33865 | 75.54201 | 7377 ft | 25 kts | 148° |
| 2026-05-06 19:28 | 35.33717 | 75.54321 | 7377 ft | 25 kts | 147° |
| 2026-05-06 19:28 | 35.33573 | 75.54436 | 7377 ft | 25 kts | 147° |
| 2026-05-06 19:28 | 35.33431 | 75.54549 | 7377 ft | 19 kts | 147° |
| 2026-05-06 19:28 | 35.33352 | 75.54538 | 7379 ft | 12 kts | 236° |
| 2026-05-06 19:29 | 35.33308 | 75.54458 | 7379 ft | 11 kts | 236° |
| 2026-05-06 19:29 | 35.33270 | 75.54386 | 7379 ft | 9 kts | 238° |
| 2026-05-06 19:29 | 35.33235 | 75.54316 | 7379 ft | 12 kts | 238° |
| 2026-05-06 19:29 | 35.33184 | 75.54221 | 7380 ft | 13 kts | 236° |
| 2026-05-06 19:30 | 35.33133 | 75.54125 | 7380 ft | 13 kts | 237° |
| 2026-05-06 19:30 | 35.33101 | 75.54125 | 7380 ft | 0 kts | 149° |
| 2026-05-06 19:30 | 35.33097 | 75.54128 | 7380 ft | 1 kts | 146° |
| 2026-05-06 19:31 | 35.33089 | 75.54135 | 7380 ft | 1 kts | 146° |
| 2026-05-06 19:31 | 35.33080 | 75.54143 | 7380 ft | 1 kts | 146° |
| 2026-05-06 19:31 | 35.33073 | 75.54148 | 7380 ft | 0 kts | 147° |